sensor_id;sensor_type;location;lat;lon;timestamp;pressure;altitude;pressure_sealevel;temperature;humidity
44140;BME280;29803;51.048;4.686;2022-08-06T00:00:10;102586.34;;;9.98;100.00
44140;BME280;29803;51.048;4.686;2022-08-06T00:02:41;102584.16;;;9.92;100.00
44140;BME280;29803;51.048;4.686;2022-08-06T00:05:12;102593.75;;;9.83;100.00
44140;BME280;29803;51.048;4.686;2022-08-06T00:07:42;102596.94;;;9.77;100.00
44140;BME280;29803;51.048;4.686;2022-08-06T00:10:16;102590.84;;;9.75;100.00
44140;BME280;29803;51.048;4.686;2022-08-06T00:12:47;102590.22;;;9.72;100.00
44140;BME280;29803;51.048;4.686;2022-08-06T00:15:18;102599.47;;;9.68;100.00
44140;BME280;29803;51.048;4.686;2022-08-06T00:17:49;102592.63;;;9.64;100.00
44140;BME280;29803;51.048;4.686;2022-08-06T00:20:19;102601.78;;;9.61;100.00
44140;BME280;29803;51.048;4.686;2022-08-06T00:22:50;102598.72;;;9.54;100.00
44140;BME280;29803;51.048;4.686;2022-08-06T00:25:20;102594.56;;;9.50;100.00
44140;BME280;29803;51.048;4.686;2022-08-06T00:27:51;102599.16;;;9.48;100.00
44140;BME280;29803;51.048;4.686;2022-08-06T00:30:21;102609.28;;;9.45;100.00
44140;BME280;29803;51.048;4.686;2022-08-06T00:32:52;102603.28;;;9.41;100.00
44140;BME280;29803;51.048;4.686;2022-08-06T00:35:22;102614.56;;;9.33;100.00
44140;BME280;29803;51.048;4.686;2022-08-06T00:37:53;102618.81;;;9.25;100.00
44140;BME280;29803;51.048;4.686;2022-08-06T00:40:24;102619.25;;;9.19;100.00
44140;BME280;29803;51.048;4.686;2022-08-06T00:42:57;102620.34;;;9.16;100.00
44140;BME280;29803;51.048;4.686;2022-08-06T00:45:44;102621.44;;;9.14;100.00
44140;BME280;29803;51.048;4.686;2022-08-06T00:48:14;102625.91;;;9.13;100.00
44140;BME280;29803;51.048;4.686;2022-08-06T00:50:45;102630.41;;;9.13;100.00
44140;BME280;29803;51.048;4.686;2022-08-06T00:53:15;102627.63;;;9.14;100.00
44140;BME280;29803;51.048;4.686;2022-08-06T00:55:46;102630.41;;;9.13;100.00
44140;BME280;29803;51.048;4.686;2022-08-06T00:58:16;102632.56;;;9.07;100.00
44140;BME280;29803;51.048;4.686;2022-08-06T01:00:47;102634.63;;;9.04;100.00
44140;BME280;29803;51.048;4.686;2022-08-06T01:03:17;102640.41;;;8.98;100.00
44140;BME280;29803;51.048;4.686;2022-08-06T01:05:48;102633.69;;;8.92;100.00
44140;BME280;29803;51.048;4.686;2022-08-06T01:08:19;102638.44;;;8.89;100.00
44140;BME280;29803;51.048;4.686;2022-08-06T01:10:49;102645.72;;;8.87;100.00
44140;BME280;29803;51.048;4.686;2022-08-06T01:13:20;102638.66;;;8.86;100.00
44140;BME280;29803;51.048;4.686;2022-08-06T01:16:03;102630.84;;;8.82;100.00
44140;BME280;29803;51.048;4.686;2022-08-06T01:18:43;102636.31;;;8.81;100.00
44140;BME280;29803;51.048;4.686;2022-08-06T01:21:40;102636.50;;;8.78;100.00
44140;BME280;29803;51.048;4.686;2022-08-06T01:27:36;102644.47;;;8.67;100.00
44140;BME280;29803;51.048;4.686;2022-08-06T01:30:16;102645.88;;;8.60;100.00
44140;BME280;29803;51.048;4.686;2022-08-06T01:32:53;102646.31;;;8.53;100.00
44140;BME280;29803;51.048;4.686;2022-08-06T01:35:28;102657.22;;;8.50;100.00
44140;BME280;29803;51.048;4.686;2022-08-06T01:38:07;102642.03;;;8.51;100.00
44140;BME280;29803;51.048;4.686;2022-08-06T01:40:41;102651.88;;;8.50;100.00
44140;BME280;29803;51.048;4.686;2022-08-06T01:43:16;102647.50;;;8.49;100.00
44140;BME280;29803;51.048;4.686;2022-08-06T01:45:49;102654.88;;;8.46;100.00
44140;BME280;29803;51.048;4.686;2022-08-06T01:48:23;102651.69;;;8.41;100.00
44140;BME280;29803;51.048;4.686;2022-08-06T01:51:01;102652.41;;;8.30;100.00
44140;BME280;29803;51.048;4.686;2022-08-06T01:53:35;102646.00;;;8.20;100.00
44140;BME280;29803;51.048;4.686;2022-08-06T01:56:07;102645.00;;;8.08;100.00
44140;BME280;29803;51.048;4.686;2022-08-06T01:58:42;102655.50;;;7.98;100.00
44140;BME280;29803;51.048;4.686;2022-08-06T02:01:16;102653.44;;;7.89;100.00
44140;BME280;29803;51.048;4.686;2022-08-06T02:03:51;102644.91;;;7.84;100.00
44140;BME280;29803;51.048;4.686;2022-08-06T02:06:30;102647.75;;;7.81;100.00
44140;BME280;29803;51.048;4.686;2022-08-06T02:09:04;102652.38;;;7.79;100.00
44140;BME280;29803;51.048;4.686;2022-08-06T02:11:37;102651.50;;;7.78;100.00
44140;BME280;29803;51.048;4.686;2022-08-06T02:14:11;102639.09;;;7.77;100.00
44140;BME280;29803;51.048;4.686;2022-08-06T02:16:43;102643.69;;;7.75;100.00
44140;BME280;29803;51.048;4.686;2022-08-06T02:19:16;102644.75;;;7.73;100.00
44140;BME280;29803;51.048;4.686;2022-08-06T02:21:49;102643.16;;;7.70;100.00
44140;BME280;29803;51.048;4.686;2022-08-06T02:24:23;102649.66;;;7.66;100.00
44140;BME280;29803;51.048;4.686;2022-08-06T02:26:56;102654.34;;;7.63;100.00
44140;BME280;29803;51.048;4.686;2022-08-06T02:29:29;102654.69;;;7.58;100.00
44140;BME280;29803;51.048;4.686;2022-08-06T02:32:02;102649.41;;;7.57;100.00
44140;BME280;29803;51.048;4.686;2022-08-06T02:34:32;102659.25;;;7.56;100.00
44140;BME280;29803;51.048;4.686;2022-08-06T02:37:10;102650.19;;;7.59;100.00
44140;BME280;29803;51.048;4.686;2022-08-06T02:40:00;102653.59;;;7.61;100.00
44140;BME280;29803;51.048;4.686;2022-08-06T02:42:38;102652.94;;;7.57;100.00
44140;BME280;29803;51.048;4.686;2022-08-06T02:45:17;102656.69;;;7.55;100.00
44140;BME280;29803;51.048;4.686;2022-08-06T02:48:07;102659.66;;;7.50;100.00
44140;BME280;29803;51.048;4.686;2022-08-06T02:50:43;102663.31;;;7.49;100.00
44140;BME280;29803;51.048;4.686;2022-08-06T02:53:19;102661.47;;;7.49;100.00
44140;BME280;29803;51.048;4.686;2022-08-06T02:55:56;102665.00;;;7.50;100.00
44140;BME280;29803;51.048;4.686;2022-08-06T02:58:42;102672.91;;;7.51;100.00
44140;BME280;29803;51.048;4.686;2022-08-06T03:01:15;102665.75;;;7.52;100.00
44140;BME280;29803;51.048;4.686;2022-08-06T03:03:51;102674.59;;;7.52;100.00
44140;BME280;29803;51.048;4.686;2022-08-06T03:06:26;102669.28;;;7.52;100.00
44140;BME280;29803;51.048;4.686;2022-08-06T03:08:58;102681.88;;;7.50;100.00
44140;BME280;29803;51.048;4.686;2022-08-06T03:11:32;102674.84;;;7.49;100.00
44140;BME280;29803;51.048;4.686;2022-08-06T03:14:05;102681.13;;;7.48;100.00
44140;BME280;29803;51.048;4.686;2022-08-06T03:16:37;102681.31;;;7.45;100.00
44140;BME280;29803;51.048;4.686;2022-08-06T03:19:09;102683.25;;;7.43;100.00
44140;BME280;29803;51.048;4.686;2022-08-06T03:21:42;102685.16;;;7.41;100.00
44140;BME280;29803;51.048;4.686;2022-08-06T03:24:14;102694.00;;;7.42;100.00
44140;BME280;29803;51.048;4.686;2022-08-06T03:26:46;102691.34;;;7.42;100.00
44140;BME280;29803;51.048;4.686;2022-08-06T03:29:18;102698.63;;;7.40;100.00
44140;BME280;29803;51.048;4.686;2022-08-06T03:31:49;102696.25;;;7.35;100.00
44140;BME280;29803;51.048;4.686;2022-08-06T03:34:20;102693.69;;;7.34;100.00
44140;BME280;29803;51.048;4.686;2022-08-06T03:36:51;102693.75;;;7.32;100.00
44140;BME280;29803;51.048;4.686;2022-08-06T03:39:23;102703.50;;;7.33;100.00
44140;BME280;29803;51.048;4.686;2022-08-06T03:41:56;102701.13;;;7.29;100.00
44140;BME280;29803;51.048;4.686;2022-08-06T03:44:26;102701.22;;;7.27;100.00
44140;BME280;29803;51.048;4.686;2022-08-06T03:47:04;102697.91;;;7.23;100.00
44140;BME280;29803;51.048;4.686;2022-08-06T03:49:38;102695.31;;;7.22;100.00
44140;BME280;29803;51.048;4.686;2022-08-06T03:52:12;102698.84;;;7.22;100.00
44140;BME280;29803;51.048;4.686;2022-08-06T03:54:48;102696.84;;;7.26;100.00
44140;BME280;29803;51.048;4.686;2022-08-06T03:57:21;102700.28;;;7.28;100.00
44140;BME280;29803;51.048;4.686;2022-08-06T03:59:55;102705.69;;;7.26;100.00
44140;BME280;29803;51.048;4.686;2022-08-06T04:02:37;102706.66;;;7.25;100.00
44140;BME280;29803;51.048;4.686;2022-08-06T04:05:10;102711.25;;;7.23;100.00
44140;BME280;29803;51.048;4.686;2022-08-06T04:07:41;102715.75;;;7.23;100.00
44140;BME280;29803;51.048;4.686;2022-08-06T04:10:14;102718.41;;;7.23;100.00
44140;BME280;29803;51.048;4.686;2022-08-06T04:12:45;102724.69;;;7.22;100.00
44140;BME280;29803;51.048;4.686;2022-08-06T04:15:16;102717.44;;;7.24;100.00
44140;BME280;29803;51.048;4.686;2022-08-06T04:17:47;102725.06;;;7.30;100.00
44140;BME280;29803;51.048;4.686;2022-08-06T04:20:21;102726.66;;;7.33;100.00
44140;BME280;29803;51.048;4.686;2022-08-06T04:22:53;102723.13;;;7.32;100.00
44140;BME280;29803;51.048;4.686;2022-08-06T04:25:25;102718.88;;;7.30;100.00
44140;BME280;29803;51.048;4.686;2022-08-06T04:27:59;102718.09;;;7.27;100.00
44140;BME280;29803;51.048;4.686;2022-08-06T04:30:31;102720.75;;;7.27;100.00
44140;BME280;29803;51.048;4.686;2022-08-06T04:33:04;102720.69;;;7.29;100.00
44140;BME280;29803;51.048;4.686;2022-08-06T04:35:37;102726.66;;;7.33;100.00
44140;BME280;29803;51.048;4.686;2022-08-06T04:38:10;102724.66;;;7.36;100.00
44140;BME280;29803;51.048;4.686;2022-08-06T04:40:41;102724.47;;;7.39;100.00
44140;BME280;29803;51.048;4.686;2022-08-06T04:43:12;102726.06;;;7.42;100.00
44140;BME280;29803;51.048;4.686;2022-08-06T04:45:43;102730.13;;;7.47;100.00
44140;BME280;29803;51.048;4.686;2022-08-06T04:48:15;102727.09;;;7.53;100.00
44140;BME280;29803;51.048;4.686;2022-08-06T04:50:46;102727.44;;;7.62;100.00
44140;BME280;29803;51.048;4.686;2022-08-06T04:53:18;102725.97;;;7.70;100.00
44140;BME280;29803;51.048;4.686;2022-08-06T04:55:49;102737.88;;;7.79;100.00
44140;BME280;29803;51.048;4.686;2022-08-06T04:58:20;102733.63;;;7.89;100.00
44140;BME280;29803;51.048;4.686;2022-08-06T05:00:51;102737.16;;;8.02;100.00
44140;BME280;29803;51.048;4.686;2022-08-06T05:03:22;102731.84;;;8.15;100.00
44140;BME280;29803;51.048;4.686;2022-08-06T05:08:27;102736.53;;;8.39;100.00
44140;BME280;29803;51.048;4.686;2022-08-06T05:11:04;102741.00;;;8.51;100.00
44140;BME280;29803;51.048;4.686;2022-08-06T05:13:37;102741.97;;;8.63;100.00
44140;BME280;29803;51.048;4.686;2022-08-06T05:16:11;102743.78;;;8.75;100.00
44140;BME280;29803;51.048;4.686;2022-08-06T05:18:49;102744.63;;;8.88;100.00
44140;BME280;29803;51.048;4.686;2022-08-06T05:21:24;102749.75;;;9.04;100.00
44140;BME280;29803;51.048;4.686;2022-08-06T05:23:56;102754.00;;;9.19;100.00
44140;BME280;29803;51.048;4.686;2022-08-06T05:26:27;102747.88;;;9.30;100.00
44140;BME280;29803;51.048;4.686;2022-08-06T05:28:58;102749.63;;;9.42;100.00
44140;BME280;29803;51.048;4.686;2022-08-06T05:31:32;102753.03;;;9.57;100.00
44140;BME280;29803;51.048;4.686;2022-08-06T05:34:09;102758.22;;;9.71;100.00
44140;BME280;29803;51.048;4.686;2022-08-06T05:36:40;102760.84;;;9.84;100.00
44140;BME280;29803;51.048;4.686;2022-08-06T05:39:10;102765.28;;;9.96;100.00
44140;BME280;29803;51.048;4.686;2022-08-06T05:41:41;102766.28;;;10.06;100.00
44140;BME280;29803;51.048;4.686;2022-08-06T05:44:13;102770.84;;;10.17;100.00
44140;BME280;29803;51.048;4.686;2022-08-06T05:46:50;102770.69;;;10.31;100.00
44140;BME280;29803;51.048;4.686;2022-08-06T05:49:33;102783.25;;;10.42;100.00
44140;BME280;29803;51.048;4.686;2022-08-06T05:52:26;102779.03;;;10.51;100.00
44140;BME280;29803;51.048;4.686;2022-08-06T05:55:04;102786.09;;;10.63;100.00
44140;BME280;29803;51.048;4.686;2022-08-06T05:57:42;102779.53;;;10.78;100.00
44140;BME280;29803;51.048;4.686;2022-08-06T06:00:16;102776.88;;;11.12;100.00
44140;BME280;29803;51.048;4.686;2022-08-06T06:02:51;102779.69;;;11.76;100.00
44140;BME280;29803;51.048;4.686;2022-08-06T06:05:24;102785.50;;;12.66;100.00
44140;BME280;29803;51.048;4.686;2022-08-06T06:07:55;102791.44;;;13.62;100.00
44140;BME280;29803;51.048;4.686;2022-08-06T06:10:28;102780.50;;;14.60;100.00
44140;BME280;29803;51.048;4.686;2022-08-06T06:13:00;102778.53;;;15.37;100.00
44140;BME280;29803;51.048;4.686;2022-08-06T06:15:39;102781.94;;;16.02;100.00
44140;BME280;29803;51.048;4.686;2022-08-06T06:18:21;102783.63;;;16.65;100.00
44140;BME280;29803;51.048;4.686;2022-08-06T06:21:03;102777.78;;;17.54;100.00
44140;BME280;29803;51.048;4.686;2022-08-06T06:23:55;102790.16;;;18.23;100.00
44140;BME280;29803;51.048;4.686;2022-08-06T06:26:45;102782.31;;;18.20;100.00
44140;BME280;29803;51.048;4.686;2022-08-06T06:32:41;102791.66;;;18.83;100.00
44140;BME280;29803;51.048;4.686;2022-08-06T06:41:14;102797.88;;;19.78;100.00
44140;BME280;29803;51.048;4.686;2022-08-06T06:44:08;102795.50;;;19.44;100.00
44140;BME280;29803;51.048;4.686;2022-08-06T06:46:56;102793.66;;;18.89;100.00
44140;BME280;29803;51.048;4.686;2022-08-06T06:49:51;102795.00;;;18.93;100.00
44140;BME280;29803;51.048;4.686;2022-08-06T06:52:27;102796.44;;;19.20;100.00
44140;BME280;29803;51.048;4.686;2022-08-06T06:55:06;102799.78;;;19.38;100.00
44140;BME280;29803;51.048;4.686;2022-08-06T06:57:44;102798.03;;;19.46;100.00
44140;BME280;29803;51.048;4.686;2022-08-06T07:00:15;102795.94;;;19.64;100.00
44140;BME280;29803;51.048;4.686;2022-08-06T07:02:47;102803.03;;;19.96;100.00
44140;BME280;29803;51.048;4.686;2022-08-06T07:05:20;102813.84;;;20.27;100.00
44140;BME280;29803;51.048;4.686;2022-08-06T07:07:52;102801.44;;;20.25;100.00
44140;BME280;29803;51.048;4.686;2022-08-06T07:10:23;102810.03;;;20.36;100.00
44140;BME280;29803;51.048;4.686;2022-08-06T07:12:55;102820.03;;;20.82;100.00
44140;BME280;29803;51.048;4.686;2022-08-06T07:15:26;102818.25;;;21.18;100.00
44140;BME280;29803;51.048;4.686;2022-08-06T07:17:58;102815.63;;;21.55;100.00
44140;BME280;29803;51.048;4.686;2022-08-06T07:20:30;102826.16;;;21.94;100.00
44140;BME280;29803;51.048;4.686;2022-08-06T07:23:05;102829.75;;;22.37;100.00
44140;BME280;29803;51.048;4.686;2022-08-06T07:25:40;102822.53;;;22.30;100.00
44140;BME280;29803;51.048;4.686;2022-08-06T07:28:12;102822.91;;;22.27;100.00
44140;BME280;29803;51.048;4.686;2022-08-06T07:30:44;102825.69;;;22.55;100.00
44140;BME280;29803;51.048;4.686;2022-08-06T07:33:16;102824.09;;;22.67;98.52
44140;BME280;29803;51.048;4.686;2022-08-06T07:35:50;102821.19;;;22.96;94.33
44140;BME280;29803;51.048;4.686;2022-08-06T07:38:21;102829.84;;;23.41;85.39
44140;BME280;29803;51.048;4.686;2022-08-06T07:40:57;102823.28;;;23.36;83.30
44140;BME280;29803;51.048;4.686;2022-08-06T07:43:47;102822.91;;;24.13;75.85
44140;BME280;29803;51.048;4.686;2022-08-06T07:46:21;102820.53;;;23.84;78.30
44140;BME280;29803;51.048;4.686;2022-08-06T07:48:55;102823.03;;;23.72;77.72
44140;BME280;29803;51.048;4.686;2022-08-06T07:51:30;102827.47;;;23.32;81.94
44140;BME280;29803;51.048;4.686;2022-08-06T07:54:03;102837.22;;;22.99;86.23
44140;BME280;29803;51.048;4.686;2022-08-06T07:56:36;102829.28;;;23.18;79.46
44140;BME280;29803;51.048;4.686;2022-08-06T07:59:08;102834.63;;;22.91;83.54
44140;BME280;29803;51.048;4.686;2022-08-06T08:01:40;102829.78;;;23.28;79.59
44140;BME280;29803;51.048;4.686;2022-08-06T08:04:11;102823.75;;;23.46;77.94
44140;BME280;29803;51.048;4.686;2022-08-06T08:07:01;102829.47;;;23.58;81.56
44140;BME280;29803;51.048;4.686;2022-08-06T08:09:33;102830.19;;;23.73;80.29
44140;BME280;29803;51.048;4.686;2022-08-06T08:12:06;102825.06;;;24.44;70.49
44140;BME280;29803;51.048;4.686;2022-08-06T08:14:37;102828.84;;;24.30;67.92
44140;BME280;29803;51.048;4.686;2022-08-06T08:17:10;102821.41;;;23.97;69.92
44140;BME280;29803;51.048;4.686;2022-08-06T08:19:40;102827.59;;;23.58;70.36
44140;BME280;29803;51.048;4.686;2022-08-06T08:22:14;102824.72;;;22.90;74.70
44140;BME280;29803;51.048;4.686;2022-08-06T08:24:46;102829.19;;;22.48;82.23
44140;BME280;29803;51.048;4.686;2022-08-06T08:27:18;102824.94;;;22.39;82.37
44140;BME280;29803;51.048;4.686;2022-08-06T08:29:48;102831.88;;;22.91;85.47
44140;BME280;29803;51.048;4.686;2022-08-06T08:32:20;102830.63;;;23.70;75.21
44140;BME280;29803;51.048;4.686;2022-08-06T08:34:50;102829.22;;;23.46;79.10
44140;BME280;29803;51.048;4.686;2022-08-06T08:37:21;102829.88;;;23.07;76.51
44140;BME280;29803;51.048;4.686;2022-08-06T08:39:52;102833.00;;;22.75;76.09
44140;BME280;29803;51.048;4.686;2022-08-06T08:42:28;102824.84;;;22.82;78.75
44140;BME280;29803;51.048;4.686;2022-08-06T08:45:03;102834.66;;;22.48;77.18
44140;BME280;29803;51.048;4.686;2022-08-06T08:47:34;102830.00;;;22.42;79.83
44140;BME280;29803;51.048;4.686;2022-08-06T08:50:06;102835.13;;;23.08;72.52
44140;BME280;29803;51.048;4.686;2022-08-06T08:52:39;102824.69;;;22.34;72.05
44140;BME280;29803;51.048;4.686;2022-08-06T08:55:12;102817.53;;;21.97;77.52
44140;BME280;29803;51.048;4.686;2022-08-06T08:57:43;102819.84;;;22.36;84.55
44140;BME280;29803;51.048;4.686;2022-08-06T09:00:14;102827.09;;;23.00;77.08
44140;BME280;29803;51.048;4.686;2022-08-06T09:02:45;102817.72;;;23.64;77.02
44140;BME280;29803;51.048;4.686;2022-08-06T09:05:16;102816.38;;;25.00;65.79
44140;BME280;29803;51.048;4.686;2022-08-06T09:07:47;102815.38;;;24.55;66.64
44140;BME280;29803;51.048;4.686;2022-08-06T09:10:18;102824.63;;;24.74;67.17
44140;BME280;29803;51.048;4.686;2022-08-06T09:12:48;102822.28;;;24.84;63.32
44140;BME280;29803;51.048;4.686;2022-08-06T09:15:19;102816.19;;;24.75;61.18
44140;BME280;29803;51.048;4.686;2022-08-06T09:17:49;102825.28;;;24.36;64.22
44140;BME280;29803;51.048;4.686;2022-08-06T09:20:20;102823.56;;;24.35;66.00
44140;BME280;29803;51.048;4.686;2022-08-06T09:22:50;102822.97;;;24.46;61.26
44140;BME280;29803;51.048;4.686;2022-08-06T09:28:10;102823.69;;;26.09;58.61
44140;BME280;29803;51.048;4.686;2022-08-06T09:30:57;102831.00;;;25.52;56.43
44140;BME280;29803;51.048;4.686;2022-08-06T09:33:29;102819.19;;;25.39;59.19
44140;BME280;29803;51.048;4.686;2022-08-06T09:41:45;102829.59;;;25.30;59.31
44140;BME280;29803;51.048;4.686;2022-08-06T09:44:15;102822.25;;;25.04;56.41
44140;BME280;29803;51.048;4.686;2022-08-06T09:46:47;102826.28;;;25.01;56.17
44140;BME280;29803;51.048;4.686;2022-08-06T09:49:20;102821.63;;;25.15;58.76
44140;BME280;29803;51.048;4.686;2022-08-06T09:51:50;102830.28;;;25.64;58.46
44140;BME280;29803;51.048;4.686;2022-08-06T09:54:21;102820.56;;;26.06;57.13
44140;BME280;29803;51.048;4.686;2022-08-06T09:57:09;102816.47;;;26.15;52.88
44140;BME280;29803;51.048;4.686;2022-08-06T09:59:43;102822.72;;;26.29;53.67
44140;BME280;29803;51.048;4.686;2022-08-06T10:02:15;102823.84;;;26.21;52.50
44140;BME280;29803;51.048;4.686;2022-08-06T10:04:48;102820.75;;;26.43;53.86
44140;BME280;29803;51.048;4.686;2022-08-06T10:07:28;102816.00;;;26.50;52.82
44140;BME280;29803;51.048;4.686;2022-08-06T10:10:00;102827.00;;;26.75;54.48
44140;BME280;29803;51.048;4.686;2022-08-06T10:12:30;102827.34;;;27.03;50.01
44140;BME280;29803;51.048;4.686;2022-08-06T10:15:01;102810.13;;;26.40;52.18
44140;BME280;29803;51.048;4.686;2022-08-06T10:17:31;102807.16;;;25.85;52.32
44140;BME280;29803;51.048;4.686;2022-08-06T10:20:07;102805.75;;;25.69;54.01
44140;BME280;29803;51.048;4.686;2022-08-06T10:22:50;102797.28;;;25.77;51.03
44140;BME280;29803;51.048;4.686;2022-08-06T10:25:22;102798.81;;;25.60;51.02
44140;BME280;29803;51.048;4.686;2022-08-06T10:27:54;102801.72;;;25.26;52.39
44140;BME280;29803;51.048;4.686;2022-08-06T10:30:26;102798.41;;;24.98;53.49
44140;BME280;29803;51.048;4.686;2022-08-06T10:33:02;102790.19;;;24.85;54.26
44140;BME280;29803;51.048;4.686;2022-08-06T10:35:36;102788.25;;;25.12;52.24
44140;BME280;29803;51.048;4.686;2022-08-06T10:38:09;102800.53;;;24.96;55.51
44140;BME280;29803;51.048;4.686;2022-08-06T10:40:44;102801.34;;;25.03;51.47
44140;BME280;29803;51.048;4.686;2022-08-06T10:43:19;102800.78;;;24.54;53.22
44140;BME280;29803;51.048;4.686;2022-08-06T10:45:50;102794.63;;;24.79;54.22
44140;BME280;29803;51.048;4.686;2022-08-06T10:48:21;102792.69;;;24.99;54.36
44140;BME280;29803;51.048;4.686;2022-08-06T10:50:54;102794.47;;;25.39;52.53
44140;BME280;29803;51.048;4.686;2022-08-06T10:53:24;102784.22;;;25.59;50.47
44140;BME280;29803;51.048;4.686;2022-08-06T10:55:56;102778.00;;;26.08;50.23
44140;BME280;29803;51.048;4.686;2022-08-06T10:58:29;102783.78;;;26.00;50.17
44140;BME280;29803;51.048;4.686;2022-08-06T11:01:03;102794.25;;;26.42;49.02
44140;BME280;29803;51.048;4.686;2022-08-06T11:03:44;102783.44;;;26.47;49.90
44140;BME280;29803;51.048;4.686;2022-08-06T11:12:14;102779.56;;;25.60;47.74
44140;BME280;29803;51.048;4.686;2022-08-06T11:14:48;102777.56;;;25.42;49.83
44140;BME280;29803;51.048;4.686;2022-08-06T11:17:20;102776.44;;;25.56;50.03
44140;BME280;29803;51.048;4.686;2022-08-06T11:19:50;102783.22;;;25.92;46.72
44140;BME280;29803;51.048;4.686;2022-08-06T11:22:36;102771.94;;;26.25;46.16
44140;BME280;29803;51.048;4.686;2022-08-06T11:25:08;102769.25;;;25.93;46.01
44140;BME280;29803;51.048;4.686;2022-08-06T11:27:51;102768.69;;;26.34;45.24
44140;BME280;29803;51.048;4.686;2022-08-06T11:30:37;102772.09;;;26.37;46.45
44140;BME280;29803;51.048;4.686;2022-08-06T11:33:09;102763.81;;;26.62;46.23
44140;BME280;29803;51.048;4.686;2022-08-06T11:35:42;102774.97;;;26.48;44.04
44140;BME280;29803;51.048;4.686;2022-08-06T11:38:16;102765.75;;;26.11;43.63
44140;BME280;29803;51.048;4.686;2022-08-06T11:41:09;102761.06;;;25.87;46.54
44140;BME280;29803;51.048;4.686;2022-08-06T11:49:22;102759.63;;;24.54;47.17
44140;BME280;29803;51.048;4.686;2022-08-06T11:51:56;102755.66;;;24.37;48.08
44140;BME280;29803;51.048;4.686;2022-08-06T11:54:29;102756.19;;;24.92;49.42
44140;BME280;29803;51.048;4.686;2022-08-06T11:59:35;102745.75;;;25.97;45.00
44140;BME280;29803;51.048;4.686;2022-08-06T12:02:09;102750.56;;;26.27;44.34
44140;BME280;29803;51.048;4.686;2022-08-06T12:04:41;102745.09;;;25.95;42.26
44140;BME280;29803;51.048;4.686;2022-08-06T12:07:24;102743.38;;;25.69;46.73
44140;BME280;29803;51.048;4.686;2022-08-06T12:12:49;102737.59;;;25.46;44.47
44140;BME280;29803;51.048;4.686;2022-08-06T12:15:39;102739.34;;;24.75;47.15
44140;BME280;29803;51.048;4.686;2022-08-06T12:18:11;102737.91;;;24.33;47.67
44140;BME280;29803;51.048;4.686;2022-08-06T12:20:43;102736.00;;;24.14;47.74
44140;BME280;29803;51.048;4.686;2022-08-06T12:23:15;102731.19;;;24.36;47.51
44140;BME280;29803;51.048;4.686;2022-08-06T12:25:47;102723.94;;;24.68;47.16
44140;BME280;29803;51.048;4.686;2022-08-06T12:28:18;102724.28;;;24.98;47.76
44140;BME280;29803;51.048;4.686;2022-08-06T12:30:51;102726.19;;;24.97;44.68
44140;BME280;29803;51.048;4.686;2022-08-06T12:33:22;102735.97;;;24.73;44.59
44140;BME280;29803;51.048;4.686;2022-08-06T12:35:57;102728.78;;;24.72;45.19
44140;BME280;29803;51.048;4.686;2022-08-06T12:38:30;102726.25;;;24.77;46.07
44140;BME280;29803;51.048;4.686;2022-08-06T12:41:04;102717.84;;;25.24;47.54
44140;BME280;29803;51.048;4.686;2022-08-06T12:43:36;102728.25;;;25.15;46.26
44140;BME280;29803;51.048;4.686;2022-08-06T12:46:07;102720.69;;;24.97;45.96
44140;BME280;29803;51.048;4.686;2022-08-06T12:48:45;102729.66;;;24.66;47.26
44140;BME280;29803;51.048;4.686;2022-08-06T12:51:17;102725.69;;;24.42;48.60
44140;BME280;29803;51.048;4.686;2022-08-06T12:53:51;102727.59;;;24.15;47.50
44140;BME280;29803;51.048;4.686;2022-08-06T12:56:23;102721.47;;;24.07;48.50
44140;BME280;29803;51.048;4.686;2022-08-06T12:58:54;102714.06;;;24.53;48.27
44140;BME280;29803;51.048;4.686;2022-08-06T13:01:27;102720.84;;;25.16;45.34
44140;BME280;29803;51.048;4.686;2022-08-06T13:03:59;102711.28;;;25.63;44.60
44140;BME280;29803;51.048;4.686;2022-08-06T13:06:33;102712.16;;;25.89;43.31
44140;BME280;29803;51.048;4.686;2022-08-06T13:09:04;102712.97;;;26.21;43.47
44140;BME280;29803;51.048;4.686;2022-08-06T13:11:35;102710.44;;;26.44;42.75
44140;BME280;29803;51.048;4.686;2022-08-06T13:14:09;102700.97;;;26.77;44.35
44140;BME280;29803;51.048;4.686;2022-08-06T13:16:42;102706.31;;;26.90;43.78
44140;BME280;29803;51.048;4.686;2022-08-06T13:19:15;102702.59;;;26.66;41.13
44140;BME280;29803;51.048;4.686;2022-08-06T13:21:58;102712.94;;;25.64;42.37
44140;BME280;29803;51.048;4.686;2022-08-06T13:24:29;102711.66;;;24.84;44.59
44140;BME280;29803;51.048;4.686;2022-08-06T13:26:59;102703.53;;;24.44;44.75
44140;BME280;29803;51.048;4.686;2022-08-06T13:29:30;102701.00;;;24.16;45.21
44140;BME280;29803;51.048;4.686;2022-08-06T13:32:04;102695.13;;;24.06;45.64
44140;BME280;29803;51.048;4.686;2022-08-06T13:34:55;102698.44;;;24.54;45.99
44140;BME280;29803;51.048;4.686;2022-08-06T13:37:46;102692.75;;;25.14;44.80
44140;BME280;29803;51.048;4.686;2022-08-06T13:40:20;102691.59;;;25.66;43.67
44140;BME280;29803;51.048;4.686;2022-08-06T13:43:04;102694.84;;;25.88;43.33
44140;BME280;29803;51.048;4.686;2022-08-06T13:45:37;102681.66;;;25.97;43.27
44140;BME280;29803;51.048;4.686;2022-08-06T13:48:10;102695.97;;;25.74;43.02
44140;BME280;29803;51.048;4.686;2022-08-06T13:50:42;102700.88;;;25.34;42.45
44140;BME280;29803;51.048;4.686;2022-08-06T13:53:13;102689.00;;;25.01;43.92
44140;BME280;29803;51.048;4.686;2022-08-06T13:55:44;102687.41;;;24.74;44.38
44140;BME280;29803;51.048;4.686;2022-08-06T13:58:14;102689.59;;;24.45;44.19
44140;BME280;29803;51.048;4.686;2022-08-06T14:00:45;102697.84;;;24.25;44.98
44140;BME280;29803;51.048;4.686;2022-08-06T14:03:16;102688.38;;;24.15;45.30